CheckWX is a tool to help pilots better visualize weather data.  It is not intended as a substitute for an official pre-flight weather briefing.

23:45:23 UTC

KSTF METAR
George M Bryan Airport
Starkville, Mississippi, USA
Current

30 mins ago

KSTF 082315Z AUTO 16004KT 10SM SCT045 15/12 A3004 RMK AO2
Observed
Dec-8 @ 23:15 UTC
Wind
  • 160° at 4 KTS
Visibility
10 SM
Flight Rules
VFR
Cloud Levels
  • Scattered at 4,500' AGL
Temperature
15°C / 59°F
Dewpoint
12°C / 54°F
Humidity
82%
Altimeter
30.04" Hg
Pressure
1017.32 hPa
Previous

50 mins ago

KSTF 082255Z AUTO 15006KT 10SM SCT028 SCT035 SCT050 16/12 A3003 RMK AO2
Observed
Dec-8 @ 22:55 UTC
Wind
  • 150° at 6 KTS
Visibility
10 SM
Flight Rules
VFR
Cloud Levels
  • Scattered at 2,800' AGL
  • Scattered at 3,500' AGL
  • Scattered at 5,000' AGL
Temperature
16°C / 61°F
Dewpoint
12°C / 54°F
Humidity
77%
Altimeter
30.03" Hg
Pressure
1016.92 hPa
Previous

1 hour ago

KSTF 082235Z AUTO 14006KT 10SM SCT030 SCT035 BKN042 16/12 A3002 RMK AO2
Observed
Dec-8 @ 22:35 UTC
Wind
  • 140° at 6 KTS
Visibility
10 SM
Flight Rules
VFR
Cloud Levels
  • Scattered at 3,000' AGL
  • Scattered at 3,500' AGL
  • Broken at 4,200' AGL
Temperature
16°C / 61°F
Dewpoint
12°C / 54°F
Humidity
77%
Altimeter
30.02" Hg
Pressure
1016.62 hPa